sensor_id;sensor_type;location;lat;lon;timestamp;P1;durP1;ratioP1;P2;durP2;ratioP2
31043;SDS011;17710;52.520;13.352;2022-08-21T00:01:37;9.30;;;5.57;;
31043;SDS011;17710;52.520;13.352;2022-08-21T00:04:04;7.25;;;5.00;;
31043;SDS011;17710;52.520;13.352;2022-08-21T00:06:31;8.48;;;4.80;;
31043;SDS011;17710;52.520;13.352;2022-08-21T00:09:00;10.65;;;5.50;;
31043;SDS011;17710;52.520;13.352;2022-08-21T00:11:28;6.43;;;5.10;;
31043;SDS011;17710;52.520;13.352;2022-08-21T00:13:55;7.30;;;5.55;;
31043;SDS011;17710;52.520;13.352;2022-08-21T00:16:21;9.25;;;5.57;;
31043;SDS011;17710;52.520;13.352;2022-08-21T00:18:50;10.63;;;5.00;;
31043;SDS011;17710;52.520;13.352;2022-08-21T00:21:16;9.18;;;5.60;;
31043;SDS011;17710;52.520;13.352;2022-08-21T00:23:43;8.23;;;4.80;;
31043;SDS011;17710;52.520;13.352;2022-08-21T00:26:09;11.38;;;4.32;;
31043;SDS011;17710;52.520;13.352;2022-08-21T00:28:44;11.40;;;4.75;;
31043;SDS011;17710;52.520;13.352;2022-08-21T00:31:13;8.80;;;4.97;;
31043;SDS011;17710;52.520;13.352;2022-08-21T00:33:40;11.32;;;5.28;;
31043;SDS011;17710;52.520;13.352;2022-08-21T00:36:07;8.45;;;4.95;;
31043;SDS011;17710;52.520;13.352;2022-08-21T00:38:35;9.20;;;4.93;;
31043;SDS011;17710;52.520;13.352;2022-08-21T00:41:02;8.13;;;5.05;;
31043;SDS011;17710;52.520;13.352;2022-08-21T00:43:31;8.75;;;5.18;;
31043;SDS011;17710;52.520;13.352;2022-08-21T00:46:03;7.28;;;5.32;;
31043;SDS011;17710;52.520;13.352;2022-08-21T00:48:30;9.20;;;5.30;;
31043;SDS011;17710;52.520;13.352;2022-08-21T00:50:58;6.57;;;5.32;;
31043;SDS011;17710;52.520;13.352;2022-08-21T00:53:27;10.57;;;5.45;;
31043;SDS011;17710;52.520;13.352;2022-08-21T00:55:56;9.82;;;5.75;;
31043;SDS011;17710;52.520;13.352;2022-08-21T00:58:23;8.73;;;6.05;;
31043;SDS011;17710;52.520;13.352;2022-08-21T01:00:52;7.85;;;6.15;;
31043;SDS011;17710;52.520;13.352;2022-08-21T01:03:21;6.97;;;6.03;;
31043;SDS011;17710;52.520;13.352;2022-08-21T01:05:50;12.38;;;6.65;;
31043;SDS011;17710;52.520;13.352;2022-08-21T01:08:17;8.93;;;6.13;;
31043;SDS011;17710;52.520;13.352;2022-08-21T01:10:45;7.35;;;6.55;;
31043;SDS011;17710;52.520;13.352;2022-08-21T01:13:13;7.85;;;6.30;;
31043;SDS011;17710;52.520;13.352;2022-08-21T01:15:43;10.60;;;7.18;;
31043;SDS011;17710;52.520;13.352;2022-08-21T01:18:14;8.77;;;6.70;;
31043;SDS011;17710;52.520;13.352;2022-08-21T01:20:44;11.43;;;6.93;;
31043;SDS011;17710;52.520;13.352;2022-08-21T01:23:13;11.07;;;7.15;;
31043;SDS011;17710;52.520;13.352;2022-08-21T01:25:39;11.82;;;7.25;;
31043;SDS011;17710;52.520;13.352;2022-08-21T01:28:07;11.60;;;7.43;;
31043;SDS011;17710;52.520;13.352;2022-08-21T01:30:39;11.55;;;7.10;;
31043;SDS011;17710;52.520;13.352;2022-08-21T01:33:08;9.15;;;6.13;;
31043;SDS011;17710;52.520;13.352;2022-08-21T01:35:34;10.68;;;6.70;;
31043;SDS011;17710;52.520;13.352;2022-08-21T01:38:01;12.70;;;6.15;;
31043;SDS011;17710;52.520;13.352;2022-08-21T01:40:29;11.15;;;6.55;;
31043;SDS011;17710;52.520;13.352;2022-08-21T01:42:56;9.02;;;5.70;;
31043;SDS011;17710;52.520;13.352;2022-08-21T01:45:24;10.48;;;5.80;;
31043;SDS011;17710;52.520;13.352;2022-08-21T01:47:51;11.07;;;5.28;;
31043;SDS011;17710;52.520;13.352;2022-08-21T01:50:19;9.43;;;5.07;;
31043;SDS011;17710;52.520;13.352;2022-08-21T01:52:47;9.02;;;4.30;;
31043;SDS011;17710;52.520;13.352;2022-08-21T01:55:15;10.75;;;4.70;;
31043;SDS011;17710;52.520;13.352;2022-08-21T01:57:44;8.73;;;4.65;;
31043;SDS011;17710;52.520;13.352;2022-08-21T02:00:12;6.78;;;4.25;;
31043;SDS011;17710;52.520;13.352;2022-08-21T02:02:42;11.80;;;3.53;;
31043;SDS011;17710;52.520;13.352;2022-08-21T02:05:11;5.90;;;3.60;;
31043;SDS011;17710;52.520;13.352;2022-08-21T02:07:40;7.80;;;3.72;;
31043;SDS011;17710;52.520;13.352;2022-08-21T02:10:10;7.80;;;3.38;;
31043;SDS011;17710;52.520;13.352;2022-08-21T02:12:38;9.27;;;3.70;;
31043;SDS011;17710;52.520;13.352;2022-08-21T02:15:08;7.22;;;3.45;;
31043;SDS011;17710;52.520;13.352;2022-08-21T02:17:39;5.53;;;3.58;;
31043;SDS011;17710;52.520;13.352;2022-08-21T02:20:07;8.77;;;3.35;;
31043;SDS011;17710;52.520;13.352;2022-08-21T02:22:35;9.80;;;3.30;;
31043;SDS011;17710;52.520;13.352;2022-08-21T02:25:06;11.13;;;3.80;;
31043;SDS011;17710;52.520;13.352;2022-08-21T02:27:37;5.50;;;3.25;;
31043;SDS011;17710;52.520;13.352;2022-08-21T02:30:07;6.38;;;3.47;;
31043;SDS011;17710;52.520;13.352;2022-08-21T02:32:35;9.25;;;3.60;;
31043;SDS011;17710;52.520;13.352;2022-08-21T02:35:01;6.72;;;3.30;;
31043;SDS011;17710;52.520;13.352;2022-08-21T02:37:30;6.97;;;3.50;;
31043;SDS011;17710;52.520;13.352;2022-08-21T02:39:56;7.00;;;3.55;;
31043;SDS011;17710;52.520;13.352;2022-08-21T02:42:24;7.35;;;3.80;;
31043;SDS011;17710;52.520;13.352;2022-08-21T02:44:51;7.13;;;3.95;;
31043;SDS011;17710;52.520;13.352;2022-08-21T02:47:18;10.00;;;3.75;;
31043;SDS011;17710;52.520;13.352;2022-08-21T02:49:45;5.90;;;3.30;;
31043;SDS011;17710;52.520;13.352;2022-08-21T02:52:11;4.00;;;3.47;;
31043;SDS011;17710;52.520;13.352;2022-08-21T02:54:39;7.00;;;3.60;;
31043;SDS011;17710;52.520;13.352;2022-08-21T02:57:05;6.47;;;3.63;;
31043;SDS011;17710;52.520;13.352;2022-08-21T02:59:33;16.80;;;4.30;;
31043;SDS011;17710;52.520;13.352;2022-08-21T03:01:59;11.57;;;4.03;;
31043;SDS011;17710;52.520;13.352;2022-08-21T03:04:29;11.43;;;4.25;;
31043;SDS011;17710;52.520;13.352;2022-08-21T03:06:56;7.85;;;4.00;;
31043;SDS011;17710;52.520;13.352;2022-08-21T03:09:23;10.25;;;4.00;;
31043;SDS011;17710;52.520;13.352;2022-08-21T03:11:50;13.52;;;3.80;;
31043;SDS011;17710;52.520;13.352;2022-08-21T03:14:16;6.65;;;3.60;;
31043;SDS011;17710;52.520;13.352;2022-08-21T03:16:43;7.40;;;3.85;;
31043;SDS011;17710;52.520;13.352;2022-08-21T03:19:09;13.75;;;4.72;;
31043;SDS011;17710;52.520;13.352;2022-08-21T03:21:37;9.65;;;3.67;;
31043;SDS011;17710;52.520;13.352;2022-08-21T03:24:04;9.88;;;3.58;;
31043;SDS011;17710;52.520;13.352;2022-08-21T03:26:31;6.57;;;3.80;;
31043;SDS011;17710;52.520;13.352;2022-08-21T03:28:59;9.63;;;3.95;;
31043;SDS011;17710;52.520;13.352;2022-08-21T03:31:25;9.30;;;3.88;;
31043;SDS011;17710;52.520;13.352;2022-08-21T03:33:54;10.43;;;3.90;;
31043;SDS011;17710;52.520;13.352;2022-08-21T03:36:24;12.00;;;4.13;;
31043;SDS011;17710;52.520;13.352;2022-08-21T03:38:52;9.48;;;3.63;;
31043;SDS011;17710;52.520;13.352;2022-08-21T03:41:18;9.52;;;3.30;;
31043;SDS011;17710;52.520;13.352;2022-08-21T03:43:48;11.32;;;3.17;;
31043;SDS011;17710;52.520;13.352;2022-08-21T03:46:14;5.50;;;3.55;;
31043;SDS011;17710;52.520;13.352;2022-08-21T03:48:43;8.95;;;3.05;;
31043;SDS011;17710;52.520;13.352;2022-08-21T03:51:10;10.18;;;3.47;;
31043;SDS011;17710;52.520;13.352;2022-08-21T03:53:46;11.85;;;3.30;;
31043;SDS011;17710;52.520;13.352;2022-08-21T03:56:13;13.02;;;3.15;;
31043;SDS011;17710;52.520;13.352;2022-08-21T03:58:41;6.22;;;2.65;;
31043;SDS011;17710;52.520;13.352;2022-08-21T04:01:13;6.47;;;2.85;;
31043;SDS011;17710;52.520;13.352;2022-08-21T04:03:39;6.90;;;2.97;;
31043;SDS011;17710;52.520;13.352;2022-08-21T04:06:06;11.13;;;3.60;;
31043;SDS011;17710;52.520;13.352;2022-08-21T04:08:33;10.80;;;3.55;;
31043;SDS011;17710;52.520;13.352;2022-08-21T04:11:00;4.57;;;2.95;;
31043;SDS011;17710;52.520;13.352;2022-08-21T04:13:28;9.23;;;3.65;;
31043;SDS011;17710;52.520;13.352;2022-08-21T04:15:55;9.50;;;3.65;;
31043;SDS011;17710;52.520;13.352;2022-08-21T04:18:23;13.27;;;3.55;;
31043;SDS011;17710;52.520;13.352;2022-08-21T04:20:49;9.68;;;2.92;;
31043;SDS011;17710;52.520;13.352;2022-08-21T04:23:18;9.82;;;3.58;;
31043;SDS011;17710;52.520;13.352;2022-08-21T04:25:45;12.02;;;3.13;;
31043;SDS011;17710;52.520;13.352;2022-08-21T04:28:12;13.23;;;3.00;;
31043;SDS011;17710;52.520;13.352;2022-08-21T04:30:39;10.48;;;3.20;;
31043;SDS011;17710;52.520;13.352;2022-08-21T04:33:06;8.10;;;3.05;;
31043;SDS011;17710;52.520;13.352;2022-08-21T04:35:32;8.20;;;3.35;;
31043;SDS011;17710;52.520;13.352;2022-08-21T04:37:59;9.70;;;3.10;;
31043;SDS011;17710;52.520;13.352;2022-08-21T04:40:26;9.52;;;2.80;;
31043;SDS011;17710;52.520;13.352;2022-08-21T04:42:56;5.95;;;2.22;;
31043;SDS011;17710;52.520;13.352;2022-08-21T04:45:28;7.60;;;2.72;;
31043;SDS011;17710;52.520;13.352;2022-08-21T04:47:58;12.93;;;2.53;;
31043;SDS011;17710;52.520;13.352;2022-08-21T04:50:28;9.82;;;2.75;;
31043;SDS011;17710;52.520;13.352;2022-08-21T04:52:57;8.98;;;2.45;;
31043;SDS011;17710;52.520;13.352;2022-08-21T04:55:26;7.45;;;2.63;;
31043;SDS011;17710;52.520;13.352;2022-08-21T04:57:53;5.70;;;2.17;;
31043;SDS011;17710;52.520;13.352;2022-08-21T05:00:21;8.38;;;2.45;;
31043;SDS011;17710;52.520;13.352;2022-08-21T05:02:49;10.80;;;2.63;;
31043;SDS011;17710;52.520;13.352;2022-08-21T05:05:22;8.55;;;3.00;;
31043;SDS011;17710;52.520;13.352;2022-08-21T05:07:51;9.13;;;2.95;;
31043;SDS011;17710;52.520;13.352;2022-08-21T05:10:19;5.60;;;2.50;;
31043;SDS011;17710;52.520;13.352;2022-08-21T05:12:45;6.15;;;2.08;;
31043;SDS011;17710;52.520;13.352;2022-08-21T05:15:12;8.65;;;2.22;;
31043;SDS011;17710;52.520;13.352;2022-08-21T05:17:38;7.43;;;2.47;;
31043;SDS011;17710;52.520;13.352;2022-08-21T05:20:05;8.98;;;2.53;;
31043;SDS011;17710;52.520;13.352;2022-08-21T05:22:33;9.93;;;2.58;;
31043;SDS011;17710;52.520;13.352;2022-08-21T05:25:00;9.32;;;2.50;;
31043;SDS011;17710;52.520;13.352;2022-08-21T05:27:26;11.68;;;2.72;;
31043;SDS011;17710;52.520;13.352;2022-08-21T05:29:54;11.30;;;3.40;;
31043;SDS011;17710;52.520;13.352;2022-08-21T05:32:21;6.18;;;2.60;;
31043;SDS011;17710;52.520;13.352;2022-08-21T05:34:47;6.47;;;2.60;;
31043;SDS011;17710;52.520;13.352;2022-08-21T05:37:14;8.77;;;2.90;;
31043;SDS011;17710;52.520;13.352;2022-08-21T05:39:41;13.35;;;3.60;;
31043;SDS011;17710;52.520;13.352;2022-08-21T05:42:08;10.32;;;2.70;;
31043;SDS011;17710;52.520;13.352;2022-08-21T05:44:37;9.55;;;3.47;;
31043;SDS011;17710;52.520;13.352;2022-08-21T05:47:04;13.18;;;3.17;;
31043;SDS011;17710;52.520;13.352;2022-08-21T05:49:31;13.05;;;2.92;;
31043;SDS011;17710;52.520;13.352;2022-08-21T05:51:57;10.20;;;3.13;;
31043;SDS011;17710;52.520;13.352;2022-08-21T05:54:24;8.52;;;2.72;;
31043;SDS011;17710;52.520;13.352;2022-08-21T05:56:52;12.35;;;3.45;;
31043;SDS011;17710;52.520;13.352;2022-08-21T05:59:18;9.10;;;2.75;;
31043;SDS011;17710;52.520;13.352;2022-08-21T06:01:45;6.63;;;2.75;;
31043;SDS011;17710;52.520;13.352;2022-08-21T06:04:16;11.48;;;2.83;;
31043;SDS011;17710;52.520;13.352;2022-08-21T06:06:42;9.88;;;2.88;;
31043;SDS011;17710;52.520;13.352;2022-08-21T06:09:08;10.80;;;2.70;;
31043;SDS011;17710;52.520;13.352;2022-08-21T06:11:38;9.07;;;3.13;;
31043;SDS011;17710;52.520;13.352;2022-08-21T06:14:06;8.82;;;2.85;;
31043;SDS011;17710;52.520;13.352;2022-08-21T06:16:32;11.63;;;3.13;;
31043;SDS011;17710;52.520;13.352;2022-08-21T06:18:59;7.85;;;2.97;;
31043;SDS011;17710;52.520;13.352;2022-08-21T06:21:25;9.32;;;2.95;;
31043;SDS011;17710;52.520;13.352;2022-08-21T06:23:51;7.53;;;2.58;;
31043;SDS011;17710;52.520;13.352;2022-08-21T06:26:20;9.75;;;2.15;;
31043;SDS011;17710;52.520;13.352;2022-08-21T06:28:48;7.43;;;2.40;;
31043;SDS011;17710;52.520;13.352;2022-08-21T06:31:17;14.05;;;2.75;;
31043;SDS011;17710;52.520;13.352;2022-08-21T06:33:45;7.03;;;2.45;;
31043;SDS011;17710;52.520;13.352;2022-08-21T06:36:13;9.05;;;2.42;;
31043;SDS011;17710;52.520;13.352;2022-08-21T06:38:40;11.80;;;3.00;;
31043;SDS011;17710;52.520;13.352;2022-08-21T06:41:06;10.00;;;2.53;;
31043;SDS011;17710;52.520;13.352;2022-08-21T06:43:33;8.15;;;2.15;;
31043;SDS011;17710;52.520;13.352;2022-08-21T06:46:00;8.25;;;2.80;;
31043;SDS011;17710;52.520;13.352;2022-08-21T06:48:27;9.20;;;2.70;;
31043;SDS011;17710;52.520;13.352;2022-08-21T06:50:54;7.82;;;2.60;;
31043;SDS011;17710;52.520;13.352;2022-08-21T06:53:21;7.60;;;2.78;;
31043;SDS011;17710;52.520;13.352;2022-08-21T06:55:48;9.90;;;2.40;;
31043;SDS011;17710;52.520;13.352;2022-08-21T06:58:16;10.00;;;2.58;;
31043;SDS011;17710;52.520;13.352;2022-08-21T07:00:48;7.18;;;2.17;;
31043;SDS011;17710;52.520;13.352;2022-08-21T07:03:23;9.35;;;2.78;;
31043;SDS011;17710;52.520;13.352;2022-08-21T07:05:54;7.85;;;2.38;;
31043;SDS011;17710;52.520;13.352;2022-08-21T07:08:25;12.52;;;3.53;;
31043;SDS011;17710;52.520;13.352;2022-08-21T07:10:54;6.35;;;2.63;;
31043;SDS011;17710;52.520;13.352;2022-08-21T07:13:23;9.95;;;3.30;;
31043;SDS011;17710;52.520;13.352;2022-08-21T07:15:49;7.40;;;2.97;;
31043;SDS011;17710;52.520;13.352;2022-08-21T07:18:16;10.68;;;3.40;;
31043;SDS011;17710;52.520;13.352;2022-08-21T07:20:43;9.43;;;3.30;;
31043;SDS011;17710;52.520;13.352;2022-08-21T07:23:24;9.32;;;3.17;;
31043;SDS011;17710;52.520;13.352;2022-08-21T07:25:55;12.45;;;3.47;;
31043;SDS011;17710;52.520;13.352;2022-08-21T07:28:21;9.65;;;3.13;;
31043;SDS011;17710;52.520;13.352;2022-08-21T07:30:51;12.52;;;3.13;;
31043;SDS011;17710;52.520;13.352;2022-08-21T07:33:22;10.45;;;2.83;;
31043;SDS011;17710;52.520;13.352;2022-08-21T07:35:50;10.05;;;2.53;;
31043;SDS011;17710;52.520;13.352;2022-08-21T07:38:21;9.35;;;3.15;;
31043;SDS011;17710;52.520;13.352;2022-08-21T07:40:48;9.50;;;2.78;;
31043;SDS011;17710;52.520;13.352;2022-08-21T07:43:19;7.20;;;2.75;;
31043;SDS011;17710;52.520;13.352;2022-08-21T07:45:48;11.75;;;2.80;;
31043;SDS011;17710;52.520;13.352;2022-08-21T07:48:16;12.38;;;3.03;;
31043;SDS011;17710;52.520;13.352;2022-08-21T07:50:43;10.73;;;3.28;;
31043;SDS011;17710;52.520;13.352;2022-08-21T07:53:09;10.57;;;2.90;;
31043;SDS011;17710;52.520;13.352;2022-08-21T07:55:37;12.50;;;2.92;;
31043;SDS011;17710;52.520;13.352;2022-08-21T07:58:05;11.57;;;3.10;;
31043;SDS011;17710;52.520;13.352;2022-08-21T08:00:32;8.90;;;2.95;;
31043;SDS011;17710;52.520;13.352;2022-08-21T08:02:59;6.80;;;2.65;;
31043;SDS011;17710;52.520;13.352;2022-08-21T08:05:28;10.75;;;3.00;;
31043;SDS011;17710;52.520;13.352;2022-08-21T08:07:56;10.88;;;3.22;;
31043;SDS011;17710;52.520;13.352;2022-08-21T08:10:22;11.35;;;2.70;;
31043;SDS011;17710;52.520;13.352;2022-08-21T08:12:51;6.80;;;2.25;;
31043;SDS011;17710;52.520;13.352;2022-08-21T08:15:20;10.13;;;2.78;;
31043;SDS011;17710;52.520;13.352;2022-08-21T08:17:48;7.97;;;3.40;;
31043;SDS011;17710;52.520;13.352;2022-08-21T08:20:15;9.27;;;2.97;;
31043;SDS011;17710;52.520;13.352;2022-08-21T08:22:44;7.57;;;2.78;;
31043;SDS011;17710;52.520;13.352;2022-08-21T08:25:14;9.63;;;3.22;;
31043;SDS011;17710;52.520;13.352;2022-08-21T08:27:42;8.60;;;2.78;;
31043;SDS011;17710;52.520;13.352;2022-08-21T08:30:11;9.23;;;4.40;;
31043;SDS011;17710;52.520;13.352;2022-08-21T08:32:39;7.55;;;2.45;;
31043;SDS011;17710;52.520;13.352;2022-08-21T08:35:07;6.85;;;2.25;;
31043;SDS011;17710;52.520;13.352;2022-08-21T08:37:35;6.18;;;1.80;;
31043;SDS011;17710;52.520;13.352;2022-08-21T08:40:05;5.32;;;1.35;;
31043;SDS011;17710;52.520;13.352;2022-08-21T08:42:36;9.98;;;1.95;;
31043;SDS011;17710;52.520;13.352;2022-08-21T08:45:04;10.00;;;1.80;;
31043;SDS011;17710;52.520;13.352;2022-08-21T08:47:36;7.57;;;2.03;;
31043;SDS011;17710;52.520;13.352;2022-08-21T08:50:06;10.40;;;4.38;;
31043;SDS011;17710;52.520;13.352;2022-08-21T08:52:40;7.80;;;2.08;;
31043;SDS011;17710;52.520;13.352;2022-08-21T08:55:12;12.48;;;2.17;;
31043;SDS011;17710;52.520;13.352;2022-08-21T08:57:42;9.02;;;2.05;;
31043;SDS011;17710;52.520;13.352;2022-08-21T09:00:15;10.40;;;2.50;;
31043;SDS011;17710;52.520;13.352;2022-08-21T09:02:45;8.48;;;3.35;;
31043;SDS011;17710;52.520;13.352;2022-08-21T09:05:17;10.30;;;2.85;;
31043;SDS011;17710;52.520;13.352;2022-08-21T09:07:50;9.97;;;1.90;;
31043;SDS011;17710;52.520;13.352;2022-08-21T09:10:29;4.15;;;1.40;;
31043;SDS011;17710;52.520;13.352;2022-08-21T09:13:02;6.40;;;2.65;;
31043;SDS011;17710;52.520;13.352;2022-08-21T09:18:23;7.57;;;2.35;;
31043;SDS011;17710;52.520;13.352;2022-08-21T09:21:02;13.07;;;2.20;;
31043;SDS011;17710;52.520;13.352;2022-08-21T09:23:40;7.25;;;1.92;;
31043;SDS011;17710;52.520;13.352;2022-08-21T09:26:14;8.70;;;1.50;;
31043;SDS011;17710;52.520;13.352;2022-08-21T09:28:43;6.88;;;1.88;;
31043;SDS011;17710;52.520;13.352;2022-08-21T09:31:15;9.60;;;2.30;;
31043;SDS011;17710;52.520;13.352;2022-08-21T09:33:48;7.38;;;1.52;;
31043;SDS011;17710;52.520;13.352;2022-08-21T09:36:22;6.03;;;1.83;;
31043;SDS011;17710;52.520;13.352;2022-08-21T09:38:53;7.18;;;1.92;;
31043;SDS011;17710;52.520;13.352;2022-08-21T09:41:26;6.10;;;1.63;;
31043;SDS011;17710;52.520;13.352;2022-08-21T09:43:54;7.85;;;2.28;;
31043;SDS011;17710;52.520;13.352;2022-08-21T09:46:21;6.70;;;1.90;;
31043;SDS011;17710;52.520;13.352;2022-08-21T09:48:52;6.63;;;1.30;;
31043;SDS011;17710;52.520;13.352;2022-08-21T09:51:22;8.23;;;1.70;;
31043;SDS011;17710;52.520;13.352;2022-08-21T09:53:52;6.28;;;1.58;;
31043;SDS011;17710;52.520;13.352;2022-08-21T09:56:24;5.53;;;1.60;;
31043;SDS011;17710;52.520;13.352;2022-08-21T09:59:15;10.55;;;2.05;;
31043;SDS011;17710;52.520;13.352;2022-08-21T10:01:44;6.30;;;1.67;;
31043;SDS011;17710;52.520;13.352;2022-08-21T10:04:14;4.57;;;1.25;;
31043;SDS011;17710;52.520;13.352;2022-08-21T10:06:40;3.60;;;1.45;;
31043;SDS011;17710;52.520;13.352;2022-08-21T10:09:08;3.50;;;1.40;;
31043;SDS011;17710;52.520;13.352;2022-08-21T10:11:36;3.25;;;1.30;;
31043;SDS011;17710;52.520;13.352;2022-08-21T10:14:06;6.07;;;1.63;;
31043;SDS011;17710;52.520;13.352;2022-08-21T10:16:49;5.72;;;2.00;;
31043;SDS011;17710;52.520;13.352;2022-08-21T10:19:31;7.93;;;3.33;;
31043;SDS011;17710;52.520;13.352;2022-08-21T10:22:02;5.40;;;2.03;;
31043;SDS011;17710;52.520;13.352;2022-08-21T10:24:44;7.10;;;1.63;;
31043;SDS011;17710;52.520;13.352;2022-08-21T10:27:22;9.23;;;3.40;;
31043;SDS011;17710;52.520;13.352;2022-08-21T10:29:59;6.82;;;2.40;;
31043;SDS011;17710;52.520;13.352;2022-08-21T10:32:34;4.53;;;1.67;;
31043;SDS011;17710;52.520;13.352;2022-08-21T10:35:19;5.10;;;1.98;;
31043;SDS011;17710;52.520;13.352;2022-08-21T10:37:58;3.67;;;1.75;;
31043;SDS011;17710;52.520;13.352;2022-08-21T10:40:40;8.43;;;2.25;;
31043;SDS011;17710;52.520;13.352;2022-08-21T10:43:16;8.38;;;1.95;;
31043;SDS011;17710;52.520;13.352;2022-08-21T10:45:56;5.90;;;2.85;;
31043;SDS011;17710;52.520;13.352;2022-08-21T10:48:28;7.80;;;1.65;;
31043;SDS011;17710;52.520;13.352;2022-08-21T10:51:03;5.63;;;2.08;;
31043;SDS011;17710;52.520;13.352;2022-08-21T10:53:39;4.05;;;1.40;;
31043;SDS011;17710;52.520;13.352;2022-08-21T10:56:13;2.85;;;1.23;;
31043;SDS011;17710;52.520;13.352;2022-08-21T10:58:45;5.10;;;1.00;;
31043;SDS011;17710;52.520;13.352;2022-08-21T11:01:20;4.85;;;1.80;;
31043;SDS011;17710;52.520;13.352;2022-08-21T11:03:59;5.93;;;1.50;;
31043;SDS011;17710;52.520;13.352;2022-08-21T11:06:37;3.00;;;1.23;;
31043;SDS011;17710;52.520;13.352;2022-08-21T11:09:11;3.95;;;1.83;;
31043;SDS011;17710;52.520;13.352;2022-08-21T11:11:41;4.50;;;1.20;;
31043;SDS011;17710;52.520;13.352;2022-08-21T11:14:17;3.53;;;1.23;;
31043;SDS011;17710;52.520;13.352;2022-08-21T11:16:53;2.58;;;1.30;;
31043;SDS011;17710;52.520;13.352;2022-08-21T11:19:27;4.53;;;1.35;;
31043;SDS011;17710;52.520;13.352;2022-08-21T11:22:01;6.00;;;1.55;;
31043;SDS011;17710;52.520;13.352;2022-08-21T11:24:35;3.80;;;1.20;;
31043;SDS011;17710;52.520;13.352;2022-08-21T11:27:13;4.20;;;0.95;;
31043;SDS011;17710;52.520;13.352;2022-08-21T11:29:47;3.17;;;1.08;;
31043;SDS011;17710;52.520;13.352;2022-08-21T11:35:16;4.07;;;0.90;;
31043;SDS011;17710;52.520;13.352;2022-08-21T11:37:57;4.97;;;1.33;;
31043;SDS011;17710;52.520;13.352;2022-08-21T11:40:34;2.45;;;1.20;;
31043;SDS011;17710;52.520;13.352;2022-08-21T11:43:12;2.17;;;1.13;;
31043;SDS011;17710;52.520;13.352;2022-08-21T11:45:47;3.90;;;1.10;;
31043;SDS011;17710;52.520;13.352;2022-08-21T11:48:33;6.32;;;1.30;;
31043;SDS011;17710;52.520;13.352;2022-08-21T11:51:07;3.05;;;1.77;;
31043;SDS011;17710;52.520;13.352;2022-08-21T11:53:40;4.70;;;1.23;;
31043;SDS011;17710;52.520;13.352;2022-08-21T11:56:17;4.55;;;1.38;;
31043;SDS011;17710;52.520;13.352;2022-08-21T11:58:50;6.13;;;1.58;;
31043;SDS011;17710;52.520;13.352;2022-08-21T12:01:21;6.55;;;2.78;;
31043;SDS011;17710;52.520;13.352;2022-08-21T12:03:52;5.05;;;0.98;;
31043;SDS011;17710;52.520;13.352;2022-08-21T12:06:29;3.75;;;1.20;;
31043;SDS011;17710;52.520;13.352;2022-08-21T12:08:59;3.97;;;1.17;;
31043;SDS011;17710;52.520;13.352;2022-08-21T12:11:32;3.45;;;1.38;;
31043;SDS011;17710;52.520;13.352;2022-08-21T12:14:13;4.78;;;1.38;;
31043;SDS011;17710;52.520;13.352;2022-08-21T12:16:42;2.55;;;1.10;;
31043;SDS011;17710;52.520;13.352;2022-08-21T12:19:11;2.40;;;1.00;;
31043;SDS011;17710;52.520;13.352;2022-08-21T12:21:47;3.75;;;1.27;;
31043;SDS011;17710;52.520;13.352;2022-08-21T12:24:30;2.85;;;1.00;;
31043;SDS011;17710;52.520;13.352;2022-08-21T12:27:01;4.35;;;1.33;;
31043;SDS011;17710;52.520;13.352;2022-08-21T12:29:44;3.22;;;1.40;;
31043;SDS011;17710;52.520;13.352;2022-08-21T12:32:20;3.88;;;1.00;;
31043;SDS011;17710;52.520;13.352;2022-08-21T12:34:53;5.30;;;1.50;;
31043;SDS011;17710;52.520;13.352;2022-08-21T12:37:29;2.88;;;1.60;;
31043;SDS011;17710;52.520;13.352;2022-08-21T12:40:11;3.85;;;1.38;;
31043;SDS011;17710;52.520;13.352;2022-08-21T12:42:45;1.38;;;0.93;;
31043;SDS011;17710;52.520;13.352;2022-08-21T12:45:17;5.38;;;1.20;;
31043;SDS011;17710;52.520;13.352;2022-08-21T12:47:47;8.38;;;1.33;;
31043;SDS011;17710;52.520;13.352;2022-08-21T12:50:19;3.85;;;1.40;;
31043;SDS011;17710;52.520;13.352;2022-08-21T12:52:57;5.00;;;1.73;;
31043;SDS011;17710;52.520;13.352;2022-08-21T12:55:32;5.53;;;1.50;;
31043;SDS011;17710;52.520;13.352;2022-08-21T12:57:59;2.65;;;1.25;;
31043;SDS011;17710;52.520;13.352;2022-08-21T13:00:27;4.68;;;1.55;;
31043;SDS011;17710;52.520;13.352;2022-08-21T13:02:59;2.08;;;0.98;;
31043;SDS011;17710;52.520;13.352;2022-08-21T13:05:30;3.35;;;1.40;;
31043;SDS011;17710;52.520;13.352;2022-08-21T13:08:06;2.90;;;1.45;;
31043;SDS011;17710;52.520;13.352;2022-08-21T13:10:37;3.08;;;1.15;;
31043;SDS011;17710;52.520;13.352;2022-08-21T13:13:06;2.78;;;1.08;;
31043;SDS011;17710;52.520;13.352;2022-08-21T13:15:37;3.38;;;1.30;;
31043;SDS011;17710;52.520;13.352;2022-08-21T13:18:06;2.10;;;1.20;;
31043;SDS011;17710;52.520;13.352;2022-08-21T13:20:33;9.82;;;2.03;;
31043;SDS011;17710;52.520;13.352;2022-08-21T13:23:06;1.75;;;1.08;;
31043;SDS011;17710;52.520;13.352;2022-08-21T13:25:46;6.10;;;1.52;;
31043;SDS011;17710;52.520;13.352;2022-08-21T13:28:12;3.35;;;1.35;;
31043;SDS011;17710;52.520;13.352;2022-08-21T13:30:39;8.55;;;1.58;;
31043;SDS011;17710;52.520;13.352;2022-08-21T13:33:09;4.68;;;1.80;;
31043;SDS011;17710;52.520;13.352;2022-08-21T13:35:45;6.22;;;2.58;;
31043;SDS011;17710;52.520;13.352;2022-08-21T13:40:42;6.53;;;2.00;;
31043;SDS011;17710;52.520;13.352;2022-08-21T13:43:14;4.22;;;2.03;;
31043;SDS011;17710;52.520;13.352;2022-08-21T13:45:46;6.65;;;1.73;;
31043;SDS011;17710;52.520;13.352;2022-08-21T13:48:17;5.57;;;1.30;;
31043;SDS011;17710;52.520;13.352;2022-08-21T13:50:45;5.28;;;1.80;;
31043;SDS011;17710;52.520;13.352;2022-08-21T13:53:20;3.97;;;1.50;;
31043;SDS011;17710;52.520;13.352;2022-08-21T13:55:50;4.30;;;1.63;;
31043;SDS011;17710;52.520;13.352;2022-08-21T13:58:24;4.07;;;1.60;;
31043;SDS011;17710;52.520;13.352;2022-08-21T14:00:51;6.13;;;1.40;;
31043;SDS011;17710;52.520;13.352;2022-08-21T14:03:23;5.55;;;1.38;;
31043;SDS011;17710;52.520;13.352;2022-08-21T14:05:54;4.55;;;1.70;;
31043;SDS011;17710;52.520;13.352;2022-08-21T14:08:26;3.05;;;1.13;;
31043;SDS011;17710;52.520;13.352;2022-08-21T14:10:58;4.25;;;1.30;;
31043;SDS011;17710;52.520;13.352;2022-08-21T14:13:36;7.13;;;1.80;;
31043;SDS011;17710;52.520;13.352;2022-08-21T14:16:13;7.63;;;1.50;;
31043;SDS011;17710;52.520;13.352;2022-08-21T14:18:46;5.03;;;1.52;;
31043;SDS011;17710;52.520;13.352;2022-08-21T14:21:23;6.93;;;2.25;;
31043;SDS011;17710;52.520;13.352;2022-08-21T14:24:04;8.20;;;1.90;;
31043;SDS011;17710;52.520;13.352;2022-08-21T14:26:36;3.83;;;1.23;;
31043;SDS011;17710;52.520;13.352;2022-08-21T14:29:13;3.92;;;1.70;;
31043;SDS011;17710;52.520;13.352;2022-08-21T14:31:42;5.63;;;1.50;;
31043;SDS011;17710;52.520;13.352;2022-08-21T14:34:10;4.97;;;1.50;;
31043;SDS011;17710;52.520;13.352;2022-08-21T14:36:41;5.35;;;1.45;;
31043;SDS011;17710;52.520;13.352;2022-08-21T14:39:08;5.13;;;1.75;;
31043;SDS011;17710;52.520;13.352;2022-08-21T14:41:41;4.40;;;1.48;;
31043;SDS011;17710;52.520;13.352;2022-08-21T14:44:08;6.65;;;2.03;;
31043;SDS011;17710;52.520;13.352;2022-08-21T14:46:36;3.17;;;1.27;;
31043;SDS011;17710;52.520;13.352;2022-08-21T14:49:03;6.18;;;1.52;;
31043;SDS011;17710;52.520;13.352;2022-08-21T14:51:32;8.43;;;1.50;;
31043;SDS011;17710;52.520;13.352;2022-08-21T14:54:01;5.45;;;1.63;;
31043;SDS011;17710;52.520;13.352;2022-08-21T14:56:28;6.00;;;1.83;;